createdAt,value
2023-01-27T00:01:15.498Z,97217.13
2023-01-27T00:03:42.046Z,97212.88
2023-01-27T00:06:11.906Z,97217.13
2023-01-27T00:08:38.483Z,97219.72
2023-01-27T00:11:23.452Z,97215.34
2023-01-27T00:13:49.962Z,97218.78
2023-01-27T00:16:16.638Z,97217.13
2023-01-27T00:18:43.607Z,97207.66
2023-01-27T00:21:28.833Z,97219.72
2023-01-27T00:24:15.309Z,97216.25
2023-01-27T00:26:41.826Z,97215.44
2023-01-27T00:29:08.366Z,97211.16
2023-01-27T00:31:53.598Z,97209.53
2023-01-27T00:34:20.157Z,97210.38
2023-01-27T00:36:46.709Z,97202.72
2023-01-27T00:39:13.553Z,97205.31
2023-01-27T00:41:41.320Z,97207.84
2023-01-27T00:44:13.119Z,97206.94
2023-01-27T00:46:40.398Z,97203.47
2023-01-27T00:49:07.047Z,97194.00
2023-01-27T00:51:34.287Z,97194.81
2023-01-27T00:54:03.043Z,97194.84
2023-01-27T00:56:30.234Z,97197.44
2023-01-27T00:58:56.898Z,97200.03
2023-01-27T01:01:23.914Z,97203.47
2023-01-27T01:03:50.773Z,97204.41
2023-01-27T01:06:19.238Z,97207.81
2023-01-27T01:08:46.090Z,97212.06
2023-01-27T01:11:15.082Z,97215.50
2023-01-27T01:13:42.735Z,97216.38
2023-01-27T01:16:13.270Z,97223.22
2023-01-27T01:18:39.809Z,97218.97
2023-01-27T01:21:06.915Z,97213.75
2023-01-27T01:23:35.171Z,97223.22
2023-01-27T01:26:01.722Z,97224.88
2023-01-27T01:28:28.223Z,97216.28
2023-01-27T01:30:54.941Z,97227.47
2023-01-27T01:33:21.541Z,97219.72
2023-01-27T01:35:48.039Z,97217.97
2023-01-27T01:38:14.760Z,97216.19
2023-01-27T01:40:43.736Z,97217.88
2023-01-27T01:43:16.718Z,97211.88
2023-01-27T01:45:54.710Z,97211.88
2023-01-27T01:48:37.624Z,97204.94
2023-01-27T01:51:11.149Z,97204.94
2023-01-27T01:53:47.518Z,97205.00
2023-01-27T01:56:19.007Z,97199.03
2023-01-27T01:58:47.521Z,97193.91
2023-01-27T02:01:16.830Z,97199.91
2023-01-27T02:03:47.936Z,97187.78
2023-01-27T02:06:14.739Z,97185.19
2023-01-27T02:08:46.272Z,97187.88
2023-01-27T02:11:12.804Z,97185.34
2023-01-27T02:13:39.923Z,97183.84
2023-01-27T02:16:07.845Z,97182.97
2023-01-27T02:18:34.448Z,97182.16
2023-01-27T02:21:01.483Z,97187.22
2023-01-27T02:23:28.201Z,97187.19
2023-01-27T02:26:10.363Z,97186.19
2023-01-27T02:28:36.940Z,97183.50
2023-01-27T02:31:03.602Z,97183.50
2023-01-27T02:33:30.164Z,97183.47
2023-01-27T02:35:56.600Z,97186.00
2023-01-27T02:38:23.720Z,97180.81
2023-01-27T02:40:54.840Z,97185.06
2023-01-27T02:43:21.329Z,97185.88
2023-01-27T02:45:48.080Z,97181.50
2023-01-27T02:48:15.128Z,97179.81
2023-01-27T02:50:41.689Z,97179.81
2023-01-27T02:53:08.525Z,97182.38
2023-01-27T02:55:35.007Z,97179.81
2023-01-27T02:58:01.583Z,97186.66
2023-01-27T03:00:28.453Z,97186.59
2023-01-27T03:02:54.951Z,97186.59
2023-01-27T03:05:21.492Z,97185.69
2023-01-27T03:07:48.016Z,97171.91
2023-01-27T03:10:14.607Z,97174.47
2023-01-27T03:12:41.091Z,97176.22
2023-01-27T03:15:27.305Z,97181.44
2023-01-27T03:18:12.192Z,97184.94
2023-01-27T03:20:40.751Z,97177.22
2023-01-27T03:23:07.719Z,97175.56
2023-01-27T03:25:34.706Z,97180.81
2023-01-27T03:28:01.747Z,97170.50
2023-01-27T03:30:29.199Z,97174.00
2023-01-27T03:32:58.266Z,97172.34
2023-01-27T03:35:34.330Z,97173.19
2023-01-27T03:38:21.787Z,97168.88
2023-01-27T03:41:06.663Z,97175.75
2023-01-27T03:43:51.562Z,97173.97
2023-01-27T03:46:19.084Z,97171.34
2023-01-27T03:48:54.446Z,97178.22
2023-01-27T03:51:23.427Z,97174.81
2023-01-27T03:53:50.417Z,97172.25
2023-01-27T03:56:18.908Z,97171.38
2023-01-27T03:58:45.710Z,97170.47
2023-01-27T04:01:14.445Z,97168.66
2023-01-27T04:03:59.973Z,97170.38
2023-01-27T04:06:47.926Z,97170.34
2023-01-27T04:09:34.865Z,97172.00
2023-01-27T04:12:04.556Z,97166.78
2023-01-27T04:14:31.128Z,97164.34
2023-01-27T04:17:03.566Z,97166.03
2023-01-27T04:19:30.908Z,97172.13
2023-01-27T04:21:58.839Z,97167.03
2023-01-27T04:24:25.808Z,97171.31
2023-01-27T04:26:54.740Z,97177.31
2023-01-27T04:29:23.492Z,97170.38
2023-01-27T04:31:50.489Z,97176.47
2023-01-27T04:34:17.282Z,97173.88
2023-01-27T04:36:44.172Z,97173.88
2023-01-27T04:39:10.910Z,97179.06
2023-01-27T04:41:37.776Z,97172.97
2023-01-27T04:44:05.364Z,97173.84
2023-01-27T04:46:32.257Z,97175.56
2023-01-27T04:48:59.576Z,97187.66
2023-01-27T04:51:26.298Z,97185.94
2023-01-27T04:53:53.191Z,97186.75
2023-01-27T04:56:27.564Z,97193.66
2023-01-27T04:58:57.658Z,97189.44
2023-01-27T05:01:24.133Z,97191.16
2023-01-27T05:03:50.687Z,97186.81
2023-01-27T05:06:17.496Z,97191.16
2023-01-27T05:08:44.222Z,97192.81
2023-01-27T05:11:12.004Z,97188.47
2023-01-27T05:13:40.756Z,97202.31
2023-01-27T05:16:14.984Z,97195.50
2023-01-27T05:18:43.234Z,97193.84
2023-01-27T05:21:13.492Z,97193.84
2023-01-27T05:23:40.152Z,97196.41
2023-01-27T05:26:11.313Z,97196.31
2023-01-27T05:28:40.177Z,97203.16
2023-01-27T05:31:12.736Z,97197.13
2023-01-27T05:33:40.778Z,97202.28
2023-01-27T05:36:09.300Z,97204.88
2023-01-27T05:38:35.958Z,97216.91
2023-01-27T05:41:05.588Z,97216.94
2023-01-27T05:43:38.063Z,97219.50
2023-01-27T05:46:08.820Z,97223.06
2023-01-27T05:48:37.812Z,97232.59
2023-01-27T05:51:05.810Z,97232.59
2023-01-27T05:53:33.579Z,97232.59
2023-01-27T05:56:00.167Z,97226.50
2023-01-27T05:58:26.882Z,97229.97
2023-01-27T06:00:54.853Z,97236.91
2023-01-27T06:03:21.813Z,97237.81
2023-01-27T06:05:56.774Z,97231.72
2023-01-27T06:08:25.251Z,97236.13
2023-01-27T06:10:52.825Z,97223.16
2023-01-27T06:13:21.783Z,97226.56
2023-01-27T06:15:49.319Z,97218.88
2023-01-27T06:18:17.891Z,97218.03
2023-01-27T06:20:45.049Z,97197.38
2023-01-27T06:23:14.037Z,97205.13
2023-01-27T06:25:45.843Z,97198.28
2023-01-27T06:28:27.761Z,97194.84
2023-01-27T06:30:55.705Z,97195.69
2023-01-27T06:33:22.289Z,97196.56
2023-01-27T06:35:48.808Z,97204.31
2023-01-27T06:38:15.634Z,97211.19
2023-01-27T06:40:43.198Z,97211.19
2023-01-27T06:43:13.819Z,97209.44
2023-01-27T06:45:40.927Z,97200.84
2023-01-27T06:48:08.581Z,97206.91
2023-01-27T06:50:36.434Z,97211.94
2023-01-27T06:53:06.850Z,97220.13
2023-01-27T06:55:34.784Z,97220.84
2023-01-27T06:58:02.102Z,97214.84
2023-01-27T07:00:29.819Z,97225.19
2023-01-27T07:02:57.205Z,97217.38
2023-01-27T07:05:24.475Z,97221.69
2023-01-27T07:07:51.003Z,97231.13
2023-01-27T07:10:17.593Z,97225.94
2023-01-27T07:12:44.117Z,97234.56
2023-01-27T07:15:11.931Z,97240.53
2023-01-27T07:17:38.969Z,97245.66
2023-01-27T07:20:07.073Z,97252.59
2023-01-27T07:22:33.646Z,97244.84
2023-01-27T07:25:00.148Z,97240.41
2023-01-27T07:27:26.672Z,97241.25
2023-01-27T07:29:54.113Z,97249.84
2023-01-27T07:32:20.642Z,97249.00
2023-01-27T07:34:47.139Z,97266.19
2023-01-27T07:37:14.125Z,97255.72
2023-01-27T07:39:40.967Z,97258.22
2023-01-27T07:42:08.791Z,97259.84
2023-01-27T07:44:35.296Z,97261.72
2023-01-27T07:47:01.902Z,97267.72
2023-01-27T07:49:28.481Z,97259.94
2023-01-27T07:51:55.076Z,97265.91
2023-01-27T07:54:21.645Z,97273.63
2023-01-27T07:56:48.140Z,97278.78
2023-01-27T07:59:14.728Z,97277.84
2023-01-27T08:01:41.938Z,97276.88
2023-01-27T08:04:08.942Z,97269.06
2023-01-27T08:06:38.145Z,97267.22
2023-01-27T08:09:04.691Z,97266.25
2023-01-27T08:11:31.261Z,97269.72
2023-01-27T08:13:57.783Z,97267.88
2023-01-27T08:16:24.369Z,97272.97
2023-01-27T08:18:53.717Z,97271.31
2023-01-27T08:21:20.651Z,97277.31
2023-01-27T08:23:47.158Z,97279.00
2023-01-27T08:26:14.204Z,97276.34
2023-01-27T08:28:41.414Z,97279.69
2023-01-27T08:31:13.949Z,97272.56
2023-01-27T08:33:41.905Z,97276.78
2023-01-27T08:36:14.492Z,97280.25
2023-01-27T08:38:42.279Z,97276.88
2023-01-27T08:41:12.001Z,97284.63
2023-01-27T08:43:38.678Z,97277.72
2023-01-27T08:46:07.073Z,97282.94
2023-01-27T08:48:34.805Z,97283.66
2023-01-27T08:51:02.293Z,97282.59
2023-01-27T08:53:29.208Z,97283.09
2023-01-27T08:55:57.771Z,97279.44
2023-01-27T08:58:24.644Z,97286.25
2023-01-27T09:00:51.207Z,97289.84
2023-01-27T09:03:17.795Z,97292.34
2023-01-27T09:05:44.341Z,97291.75
2023-01-27T09:08:10.939Z,97282.31
2023-01-27T09:10:39.942Z,97289.22
2023-01-27T09:13:08.151Z,97296.13
2023-01-27T09:15:38.099Z,97297.13
2023-01-27T09:18:06.762Z,97304.06
2023-01-27T09:20:34.554Z,97308.31
2023-01-27T09:23:02.794Z,97314.22
2023-01-27T09:25:29.685Z,97313.97
2023-01-27T09:27:58.115Z,97321.78
2023-01-27T09:30:26.493Z,97321.03
2023-01-27T09:32:53.187Z,97315.59
2023-01-27T09:35:19.848Z,97321.31
2023-01-27T09:37:49.765Z,97325.91
2023-01-27T09:40:47.386Z,97331.56
2023-01-27T09:43:32.736Z,97324.53
2023-01-27T09:46:28.416Z,97325.78
2023-01-27T09:48:57.939Z,97328.16
2023-01-27T09:51:43.711Z,97323.47
2023-01-27T09:54:43.750Z,97320.66
2023-01-27T09:57:36.019Z,97322.44
2023-01-27T10:00:32.600Z,97316.63
2023-01-27T10:03:17.691Z,97327.06
2023-01-27T10:06:13.053Z,97318.00
2023-01-27T10:08:58.418Z,97323.31
2023-01-27T10:11:54.885Z,97321.72
2023-01-27T10:14:35.415Z,97325.09
2023-01-27T10:17:13.771Z,97317.94
2023-01-27T10:20:00.342Z,97318.50
2023-01-27T10:22:42.214Z,97326.53
2023-01-27T10:25:16.017Z,97322.19
2023-01-27T10:27:48.612Z,97312.00
2023-01-27T10:30:15.333Z,97315.41
2023-01-27T10:33:12.149Z,97311.75
2023-01-27T10:35:54.594Z,97314.75
2023-01-27T10:38:33.469Z,97314.28
2023-01-27T10:41:08.973Z,97311.16
2023-01-27T10:43:45.827Z,97313.47
2023-01-27T10:46:16.811Z,97315.97
2023-01-27T10:48:51.423Z,97305.56
2023-01-27T10:51:50.507Z,97307.47
2023-01-27T10:54:30.778Z,97306.03
2023-01-27T10:57:03.397Z,97312.28
2023-01-27T10:59:38.940Z,97304.06
2023-01-27T11:02:17.930Z,97306.78
2023-01-27T11:04:51.795Z,97306.31
2023-01-27T11:07:21.406Z,97307.56
2023-01-27T11:09:57.934Z,97319.50
2023-01-27T11:12:36.605Z,97307.50
2023-01-27T11:15:20.244Z,97314.66
2023-01-27T11:17:52.375Z,97310.09
2023-01-27T11:20:36.762Z,97309.81
2023-01-27T11:23:26.541Z,97308.66
2023-01-27T11:26:23.873Z,97304.78
2023-01-27T11:29:00.171Z,97303.44
2023-01-27T11:31:37.547Z,97309.50
2023-01-27T11:34:13.262Z,97304.50
2023-01-27T11:36:39.834Z,97300.31
2023-01-27T11:39:06.711Z,97303.06
2023-01-27T11:41:38.571Z,97307.34
2023-01-27T11:44:13.665Z,97305.66
2023-01-27T11:46:40.780Z,97296.28
2023-01-27T11:49:09.931Z,97304.00
2023-01-27T11:51:39.722Z,97300.41
2023-01-27T11:54:23.506Z,97299.66
2023-01-27T11:56:50.625Z,97300.41
2023-01-27T11:59:29.699Z,97297.09
2023-01-27T12:02:08.961Z,97293.91
2023-01-27T12:04:38.644Z,97288.78
2023-01-27T12:07:14.829Z,97278.56
2023-01-27T12:09:42.164Z,97277.78
2023-01-27T12:12:10.489Z,97283.09
2023-01-27T12:14:37.378Z,97277.38
2023-01-27T12:17:07.454Z,97284.53
2023-01-27T12:19:40.415Z,97278.47
2023-01-27T12:22:15.077Z,97274.16
2023-01-27T12:24:47.920Z,97269.75
2023-01-27T12:27:21.074Z,97268.03
2023-01-27T12:30:17.842Z,97275.81
2023-01-27T12:32:47.354Z,97269.03
2023-01-27T12:35:23.655Z,97271.41
2023-01-27T12:37:57.269Z,97262.13
2023-01-27T12:40:25.844Z,97262.84
2023-01-27T12:43:01.574Z,97265.31
2023-01-27T12:45:30.893Z,97267.78
2023-01-27T12:47:59.195Z,97267.75
2023-01-27T12:50:34.536Z,97266.16
2023-01-27T12:53:16.874Z,97260.94
2023-01-27T12:55:49.426Z,97262.69
2023-01-27T12:58:28.006Z,97262.69
2023-01-27T13:00:55.540Z,97267.09
2023-01-27T13:03:22.502Z,97262.84
2023-01-27T13:05:53.572Z,97267.09
2023-01-27T13:08:20.655Z,97266.22
2023-01-27T13:10:59.644Z,97266.16
2023-01-27T13:13:30.914Z,97268.78
2023-01-27T13:16:28.444Z,97278.47
2023-01-27T13:18:57.761Z,97274.09
2023-01-27T13:21:38.130Z,97275.88
2023-01-27T13:24:12.885Z,97271.69
2023-01-27T13:26:40.864Z,97280.72
2023-01-27T13:29:10.998Z,97277.25
2023-01-27T13:31:55.427Z,97281.56
2023-01-27T13:34:34.363Z,97285.97
2023-01-27T13:37:19.282Z,97285.16
2023-01-27T13:40:04.907Z,97292.03
2023-01-27T13:42:37.321Z,97286.81
2023-01-27T13:45:18.520Z,97283.38
2023-01-27T13:47:50.707Z,97289.44
2023-01-27T13:50:30.516Z,97288.66
2023-01-27T13:52:58.938Z,97293.91
2023-01-27T13:55:56.335Z,97295.56
2023-01-27T13:58:44.277Z,97296.56
2023-01-27T14:01:48.328Z,97291.31
2023-01-27T14:04:42.572Z,97290.53
2023-01-27T14:07:09.233Z,97295.72
2023-01-27T14:09:41.605Z,97287.13
2023-01-27T14:12:31.127Z,97292.25
2023-01-27T14:15:16.028Z,97285.50
2023-01-27T14:18:09.465Z,97289.91
2023-01-27T14:20:51.922Z,97293.41
2023-01-27T14:23:21.421Z,97291.63
2023-01-27T14:25:58.033Z,97290.88
2023-01-27T14:28:36.312Z,97285.63
2023-01-27T14:31:11.875Z,97288.25
2023-01-27T14:33:55.090Z,97291.81
2023-01-27T14:36:30.842Z,97290.97
2023-01-27T14:39:02.442Z,97285.78
2023-01-27T14:41:49.481Z,97288.47
2023-01-27T14:44:18.496Z,97295.47
2023-01-27T14:47:01.571Z,97293.69
2023-01-27T14:49:36.757Z,97296.44
2023-01-27T14:52:13.908Z,97303.34
2023-01-27T14:55:19.110Z,97299.97
2023-01-27T14:58:00.372Z,97306.16
2023-01-27T15:01:12.106Z,97301.03
2023-01-27T15:04:02.084Z,97307.91
2023-01-27T15:06:57.879Z,97309.88
2023-01-27T15:10:01.352Z,97312.50
2023-01-27T15:12:57.234Z,97314.22
2023-01-27T15:15:32.850Z,97315.09
2023-01-27T15:18:36.441Z,97317.75
2023-01-27T15:21:08.820Z,97320.47
2023-01-27T15:24:03.624Z,97316.13
2023-01-27T15:26:32.777Z,97320.53
2023-01-27T15:29:00.020Z,97322.28
2023-01-27T15:31:29.066Z,97324.97
2023-01-27T15:34:04.672Z,97319.84
2023-01-27T15:37:02.114Z,97314.69
2023-01-27T15:39:40.479Z,97309.56
2023-01-27T15:42:11.329Z,97306.97
2023-01-27T15:44:58.810Z,97315.63
2023-01-27T15:47:28.394Z,97313.03
2023-01-27T15:50:13.041Z,97308.78
2023-01-27T15:52:50.080Z,97315.72
2023-01-27T15:55:24.975Z,97319.16
2023-01-27T15:58:02.136Z,97318.28
2023-01-27T16:00:38.516Z,97321.75
2023-01-27T16:03:23.942Z,97315.72
2023-01-27T16:05:56.435Z,97317.50
2023-01-27T16:08:25.836Z,97318.41
2023-01-27T16:10:52.380Z,97316.78
2023-01-27T16:13:26.719Z,97327.16
2023-01-27T16:16:22.548Z,97331.41
2023-01-27T16:19:08.589Z,97326.31
2023-01-27T16:21:47.591Z,97324.56
2023-01-27T16:24:33.397Z,97327.25
2023-01-27T16:27:15.628Z,97334.25
2023-01-27T16:29:48.432Z,97341.13
2023-01-27T16:32:18.364Z,97341.19
2023-01-27T16:35:04.460Z,97342.13
2023-01-27T16:37:33.754Z,97348.13
2023-01-27T16:40:19.708Z,97343.81
2023-01-27T16:42:56.783Z,97342.09
2023-01-27T16:45:30.565Z,97355.88
2023-01-27T16:48:07.036Z,97359.41
2023-01-27T16:50:38.151Z,97354.22
2023-01-27T16:53:12.237Z,97361.97
2023-01-27T16:55:39.907Z,97364.56
2023-01-27T16:58:20.645Z,97360.22
2023-01-27T17:00:50.890Z,97362.88
2023-01-27T17:03:31.110Z,97368.09
2023-01-27T17:06:02.305Z,97362.00
2023-01-27T17:08:35.384Z,97367.19
2023-01-27T17:11:27.775Z,97361.09
2023-01-27T17:14:28.397Z,97379.19
2023-01-27T17:16:58.364Z,97370.59
2023-01-27T17:19:31.226Z,97369.72
2023-01-27T17:22:06.663Z,97373.13
2023-01-27T17:24:36.667Z,97370.56
2023-01-27T17:27:29.327Z,97375.69
2023-01-27T17:30:02.686Z,97386.09
2023-01-27T17:32:34.668Z,97381.78
2023-01-27T17:35:04.976Z,97385.31
2023-01-27T17:37:32.395Z,97382.72
2023-01-27T17:40:01.981Z,97377.53
2023-01-27T17:42:30.946Z,97375.06
2023-01-27T17:45:20.313Z,97373.31
2023-01-27T17:47:47.210Z,97375.06
2023-01-27T17:50:23.161Z,97382.81
2023-01-27T17:52:52.742Z,97391.44
2023-01-27T17:55:24.832Z,97379.38
2023-01-27T17:58:06.831Z,97387.19
2023-01-27T18:00:43.481Z,97385.44
2023-01-27T18:03:17.197Z,97390.63
2023-01-27T18:05:45.509Z,97388.91
2023-01-27T18:08:12.141Z,97382.84
2023-01-27T18:10:44.051Z,97390.69
2023-01-27T18:13:19.774Z,97395.00
2023-01-27T18:15:50.651Z,97399.34
2023-01-27T18:18:32.230Z,97408.84
2023-01-27T18:21:06.417Z,97400.22
2023-01-27T18:23:58.910Z,97405.41
2023-01-27T18:26:31.439Z,97403.72
2023-01-27T18:29:01.890Z,97408.06
2023-01-27T18:31:32.449Z,97407.28
2023-01-27T18:34:06.508Z,97407.28
2023-01-27T18:36:35.752Z,97413.34
2023-01-27T18:39:04.354Z,97422.81
2023-01-27T18:41:32.904Z,97415.13
2023-01-27T18:44:02.770Z,97415.09
2023-01-27T18:46:29.381Z,97413.34
2023-01-27T18:48:56.226Z,97417.66
2023-01-27T18:51:22.998Z,97419.34
2023-01-27T18:53:49.532Z,97421.97
2023-01-27T18:56:16.601Z,97417.69
2023-01-27T18:58:43.097Z,97419.41
2023-01-27T19:01:21.640Z,97418.47
2023-01-27T19:03:49.329Z,97424.53
2023-01-27T19:06:16.842Z,97429.72
2023-01-27T19:08:44.388Z,97433.16
2023-01-27T19:11:16.742Z,97430.56
2023-01-27T19:13:44.845Z,97435.78
2023-01-27T19:16:17.700Z,97434.94
2023-01-27T19:18:44.828Z,97431.47
2023-01-27T19:21:13.450Z,97435.81
2023-01-27T19:23:44.376Z,97443.53
2023-01-27T19:26:19.281Z,97437.53
2023-01-27T19:28:49.002Z,97438.38
2023-01-27T19:31:15.663Z,97431.47
2023-01-27T19:33:44.804Z,97437.56
2023-01-27T19:36:25.362Z,97442.72
2023-01-27T19:39:00.882Z,97447.88
2023-01-27T19:41:28.682Z,97448.81
2023-01-27T19:43:55.259Z,97447.94
2023-01-27T19:46:22.635Z,97452.28
2023-01-27T19:48:52.503Z,97448.84
2023-01-27T19:51:19.972Z,97446.28
2023-01-27T19:53:46.708Z,97448.88
2023-01-27T19:56:16.922Z,97449.72
2023-01-27T19:58:51.446Z,97448.88
2023-01-27T20:01:24.354Z,97449.81
2023-01-27T20:03:52.083Z,97453.22
2023-01-27T20:06:26.745Z,97465.31
2023-01-27T20:08:59.569Z,97461.00
2023-01-27T20:11:29.307Z,97461.03
2023-01-27T20:13:56.015Z,97461.03
2023-01-27T20:16:23.328Z,97462.78
2023-01-27T20:18:50.771Z,97462.00
2023-01-27T20:21:17.565Z,97459.47
2023-01-27T20:23:44.048Z,97463.78
2023-01-27T20:26:16.363Z,97463.91
2023-01-27T20:28:43.292Z,97463.06
2023-01-27T20:31:14.572Z,97467.31
2023-01-27T20:33:41.120Z,97456.13
2023-01-27T20:36:19.518Z,97467.34
2023-01-27T20:38:46.847Z,97469.16
2023-01-27T20:41:19.101Z,97467.47
2023-01-27T20:43:45.610Z,97474.38
2023-01-27T20:46:15.099Z,97464.88
2023-01-27T20:48:42.103Z,97473.53
2023-01-27T20:51:11.423Z,97476.94
2023-01-27T20:53:45.014Z,97475.28
2023-01-27T20:56:23.492Z,97477.88
2023-01-27T20:58:50.588Z,97477.91
2023-01-27T21:01:19.736Z,97487.41
2023-01-27T21:03:47.129Z,97488.22
2023-01-27T21:06:19.903Z,97479.63
2023-01-27T21:08:49.765Z,97487.38
2023-01-27T21:11:18.600Z,97487.34
2023-01-27T21:13:45.582Z,97492.53
2023-01-27T21:16:12.618Z,97494.22
2023-01-27T21:18:39.713Z,97491.66
2023-01-27T21:21:06.515Z,97485.59
2023-01-27T21:23:34.813Z,97489.94
2023-01-27T21:26:09.243Z,97489.09
2023-01-27T21:28:36.294Z,97495.03
2023-01-27T21:31:16.389Z,97498.44
2023-01-27T21:33:45.683Z,97499.31
2023-01-27T21:36:12.701Z,97494.97
2023-01-27T21:38:40.039Z,97503.56
2023-01-27T21:41:09.803Z,97500.03
2023-01-27T21:43:55.061Z,97502.63
2023-01-27T21:46:21.947Z,97495.69
2023-01-27T21:48:48.531Z,97502.63
2023-01-27T21:51:15.251Z,97497.44
2023-01-27T21:53:41.918Z,97500.91
2023-01-27T21:56:10.636Z,97504.44
2023-01-27T21:58:37.519Z,97501.88
2023-01-27T22:01:11.001Z,97507.94
2023-01-27T22:03:38.343Z,97501.88
2023-01-27T22:06:09.002Z,97495.94
2023-01-27T22:08:36.728Z,97504.66
2023-01-27T22:11:11.600Z,97505.56
2023-01-27T22:13:39.002Z,97500.47
2023-01-27T22:16:06.145Z,97492.69
2023-01-27T22:18:36.035Z,97497.88
2023-01-27T22:21:02.743Z,97502.22
2023-01-27T22:23:29.353Z,97500.50
2023-01-27T22:25:55.836Z,97499.66
2023-01-27T22:28:24.110Z,97494.56
2023-01-27T22:30:51.078Z,97496.31
2023-01-27T22:33:18.176Z,97492.03
2023-01-27T22:35:44.747Z,97490.38
2023-01-27T22:38:11.347Z,97489.56
2023-01-27T22:40:37.972Z,97492.13
2023-01-27T22:43:10.119Z,97495.56
2023-01-27T22:45:40.468Z,97494.72
2023-01-27T22:48:08.716Z,97487.00
2023-01-27T22:50:36.049Z,97487.88
2023-01-27T22:53:04.077Z,97485.38
2023-01-27T22:55:30.604Z,97489.69
2023-01-27T22:57:57.125Z,97494.03
2023-01-27T23:00:23.663Z,97485.44
2023-01-27T23:02:50.154Z,97487.19
2023-01-27T23:05:17.079Z,97486.31
2023-01-27T23:07:43.879Z,97496.66
2023-01-27T23:10:10.791Z,97494.97
2023-01-27T23:12:37.331Z,97499.28
2023-01-27T23:15:04.267Z,97488.94
2023-01-27T23:17:30.735Z,97495.00
2023-01-27T23:19:57.221Z,97492.44
2023-01-27T23:22:23.819Z,97498.47
2023-01-27T23:24:50.325Z,97490.75
2023-01-27T23:27:16.924Z,97500.25
2023-01-27T23:29:43.454Z,97495.16
2023-01-27T23:32:10.022Z,97497.72
2023-01-27T23:34:36.602Z,97497.72
2023-01-27T23:37:03.171Z,97499.44
2023-01-27T23:39:29.683Z,97498.63
2023-01-27T23:41:56.222Z,97508.13
2023-01-27T23:44:22.669Z,97499.50
2023-01-27T23:46:49.166Z,97499.53
2023-01-27T23:49:15.723Z,97502.13
2023-01-27T23:51:42.330Z,97502.19
2023-01-27T23:54:08.809Z,97499.69
2023-01-27T23:56:35.350Z,97499.72
2023-01-27T23:59:01.945Z,97501.41
